Time;durP1;ratioP1;P1;durP2;ratioP2;P2;SDS_P1;SDS_P2;PMS_P1;PMS_P2;Temp;Humidity;BMP_temperature;BMP_pressure;BME280_temperature;BME280_humidity;BME280_pressure;Samples;Min_cycle;Max_cycle;Signal;HPM_P1;HPM_P2
2022/09/09 00:01:08;;;;;;;8.40;3.70;;;14.00;99.90;;;;;;5069758;28;20197;-60
2022/09/09 00:03:48;;;;;;;10.43;3.87;;;14.00;99.90;;;;;;5072352;28;20228;-60
2022/09/09 00:06:24;;;;;;;4.27;3.60;;;14.00;99.90;;;;;;5076430;28;20203;-60
2022/09/09 00:09:02;;;;;;;11.47;3.87;;;13.90;99.90;;;;;;5072440;28;20238;-60
2022/09/09 00:11:36;;;;;;;5.77;3.67;;;14.00;99.90;;;;;;5063142;28;20189;-60
2022/09/09 00:14:14;;;;;;;10.47;4.07;;;13.90;99.90;;;;;;5070346;28;20295;-60
2022/09/09 00:16:51;;;;;;;8.27;3.73;;;14.00;99.90;;;;;;5083284;28;20191;-60
2022/09/09 00:19:28;;;;;;;5.53;3.73;;;14.00;99.90;;;;;;5107536;28;20202;-60
2022/09/09 00:22:14;;;;;;;8.23;3.63;;;14.00;99.90;;;;;;5044714;28;20192;-60
2022/09/09 00:24:45;;;;;;;6.77;3.83;;;14.00;99.90;;;;;;5068263;28;20638;-60
2022/09/09 00:27:23;;;;;;;6.83;3.60;;;14.00;99.90;;;;;;5075464;28;20200;-60
2022/09/09 00:29:55;;;;;;;8.50;3.77;;;14.00;99.90;;;;;;5075206;28;20230;-59
2022/09/09 00:32:29;;;;;;;7.30;3.83;;;14.00;99.90;;;;;;5061065;28;20273;-60
2022/09/09 00:35:03;;;;;;;8.67;4.07;;;14.00;99.90;;;;;;5075830;28;20212;-60
2022/09/09 00:37:33;;;;;;;12.13;3.70;;;14.00;99.90;;;;;;5076907;28;20195;-59
2022/09/09 00:40:07;;;;;;;11.33;3.73;;;14.10;99.90;;;;;;5075148;28;20679;-60
2022/09/09 00:42:42;;;;;;;9.37;4.07;;;14.00;99.90;;;;;;5077848;28;20214;-60
2022/09/09 00:45:33;;;;;;;8.73;3.97;;;14.00;99.90;;;;;;5071320;28;20227;-60
2022/09/09 00:48:07;;;;;;;8.53;3.40;;;14.10;99.90;;;;;;5091465;28;20197;-59
2022/09/09 00:50:45;;;;;;;7.30;3.50;;;14.10;99.90;;;;;;5107935;28;20192;-59
2022/09/09 00:53:25;;;;;;;5.27;3.43;;;14.10;99.90;;;;;;5094320;28;20202;-60
2022/09/09 00:56:02;;;;;;;9.97;3.53;;;14.10;99.90;;;;;;5072596;28;20208;-60
2022/09/09 00:58:30;;;;;;;4.40;3.37;;;14.10;99.90;;;;;;5076333;28;20199;-59
2022/09/09 01:01:06;;;;;;;10.83;3.93;;;14.00;99.90;;;;;;5069665;28;20199;-60
2022/09/09 01:03:40;;;;;;;10.80;4.00;;;14.00;99.90;;;;;;5077571;28;20282;-60
2022/09/09 01:06:19;;;;;;;5.57;3.30;;;14.00;99.90;;;;;;5077416;28;20210;-60
2022/09/09 01:09:07;;;;;;;4.97;3.17;;;14.00;99.90;;;;;;5072436;28;20202;-60
2022/09/09 01:11:47;;;;;;;6.47;3.37;;;14.00;99.90;;;;;;5062465;28;20192;-60
2022/09/09 01:14:28;;;;;;;8.70;3.13;;;14.00;99.90;;;;;;5080526;28;20219;-60
2022/09/09 01:17:00;;;;;;;8.10;3.10;;;14.00;99.90;;;;;;5069945;28;20201;-60
2022/09/09 01:19:41;;;;;;;12.43;3.10;;;14.00;99.90;;;;;;5074505;28;20214;-60
2022/09/09 01:22:21;;;;;;;4.97;2.70;;;14.00;99.90;;;;;;5074003;28;20203;-60
2022/09/09 01:25:14;;;;;;;6.43;2.83;;;14.00;99.90;;;;;;5074162;28;20215;-60
2022/09/09 01:27:45;;;;;;;7.00;2.97;;;14.00;99.90;;;;;;5061819;28;20192;-60
2022/09/09 01:30:16;;;;;;;7.17;3.00;;;14.00;99.90;;;;;;5091460;28;20201;-60
2022/09/09 01:32:47;;;;;;;4.07;2.70;;;13.90;99.90;;;;;;5079768;28;20187;-60
2022/09/09 01:35:30;;;;;;;4.87;2.83;;;14.00;99.90;;;;;;5064618;28;20208;-60
2022/09/09 01:37:58;;;;;;;6.27;3.10;;;13.90;99.90;;;;;;5075839;28;20199;-60
2022/09/09 01:40:27;;;;;;;10.33;3.03;;;14.00;99.90;;;;;;5074119;28;20196;-60
2022/09/09 01:42:57;;;;;;;4.87;2.93;;;13.90;99.90;;;;;;5074217;28;20184;-60
2022/09/09 01:45:26;;;;;;;5.10;2.87;;;13.90;99.90;;;;;;5081712;28;20215;-60
2022/09/09 01:47:54;;;;;;;13.43;3.77;;;13.90;99.90;;;;;;5066767;28;20188;-60
2022/09/09 01:50:23;;;;;;;7.90;3.07;;;13.90;99.90;;;;;;5063865;28;20200;-60
2022/09/09 01:52:56;;;;;;;4.93;2.93;;;13.90;99.90;;;;;;5076252;28;20455;-60
2022/09/09 01:55:31;;;;;;;5.13;2.73;;;13.90;99.90;;;;;;5059385;28;20201;-60
2022/09/09 01:58:15;;;;;;;7.87;3.07;;;13.90;99.90;;;;;;5058871;28;20197;-60
2022/09/09 02:00:52;;;;;;;6.47;3.00;;;13.90;99.90;;;;;;5070620;28;20271;-60
2022/09/09 02:03:26;;;;;;;10.63;3.30;;;13.90;99.90;;;;;;5096891;28;20242;-60
2022/09/09 02:06:02;;;;;;;8.10;3.00;;;13.90;99.90;;;;;;5062941;28;20185;-60
2022/09/09 02:08:39;;;;;;;10.57;3.20;;;14.00;99.90;;;;;;5082596;28;20511;-60
2022/09/09 02:11:13;;;;;;;9.30;3.07;;;14.00;99.90;;;;;;5067827;28;20228;-60
2022/09/09 02:13:46;;;;;;;11.17;3.60;;;14.00;99.90;;;;;;5075444;28;20558;-60
2022/09/09 02:16:19;;;;;;;7.17;2.93;;;14.00;99.90;;;;;;5071815;28;20220;-60
2022/09/09 02:18:53;;;;;;;8.60;3.20;;;14.00;99.90;;;;;;5070989;28;20204;-60
2022/09/09 02:21:23;;;;;;;11.07;3.60;;;14.00;99.90;;;;;;5065926;28;20192;-60
2022/09/09 02:23:53;;;;;;;10.67;3.37;;;14.00;99.90;;;;;;5071943;28;20554;-60
2022/09/09 02:26:24;;;;;;;8.57;3.40;;;14.00;99.90;;;;;;5062394;28;20199;-60
2022/09/09 02:28:57;;;;;;;7.33;3.30;;;14.10;99.90;;;;;;5071228;28;20207;-60
2022/09/09 02:31:26;;;;;;;9.67;3.47;;;14.10;99.90;;;;;;5067042;28;20205;-60
2022/09/09 02:34:00;;;;;;;12.37;3.27;;;14.10;99.90;;;;;;5070455;28;20200;-60
2022/09/09 02:36:33;;;;;;;13.07;3.73;;;14.10;99.90;;;;;;5057335;28;20208;-60
2022/09/09 02:39:04;;;;;;;8.53;3.60;;;14.10;99.90;;;;;;5072550;28;20200;-60
2022/09/09 02:41:41;;;;;;;9.47;3.67;;;14.10;99.90;;;;;;5063600;28;20188;-60
2022/09/09 02:44:14;;;;;;;13.27;3.60;;;14.20;99.90;;;;;;5076286;28;20715;-60
2022/09/09 02:46:56;;;;;;;9.57;3.60;;;14.20;99.90;;;;;;5065443;28;20849;-61
2022/09/09 02:49:30;;;;;;;10.50;3.30;;;14.20;99.90;;;;;;5059591;28;20233;-60
2022/09/09 02:52:03;;;;;;;9.97;3.60;;;14.20;99.90;;;;;;5065290;28;20309;-60
2022/09/09 02:54:33;;;;;;;12.73;3.80;;;14.30;99.90;;;;;;5071263;28;20210;-60
2022/09/09 02:57:07;;;;;;;12.70;3.70;;;14.30;99.90;;;;;;5065613;28;20228;-60
2022/09/09 02:59:37;;;;;;;9.10;3.63;;;14.30;99.90;;;;;;5081033;28;20189;-60
2022/09/09 03:02:06;;;;;;;18.00;4.00;;;14.30;99.90;;;;;;5064263;28;20196;-61
2022/09/09 03:04:34;;;;;;;12.13;3.60;;;14.20;99.90;;;;;;5074248;28;20196;-60
2022/09/09 03:07:03;;;;;;;11.27;3.60;;;14.30;99.90;;;;;;5062343;28;20194;-60
2022/09/09 03:09:32;;;;;;;11.17;3.20;;;14.30;99.90;;;;;;5053495;28;20220;-60
2022/09/09 03:12:00;;;;;;;12.00;3.73;;;14.30;99.90;;;;;;5081678;28;20238;-61
2022/09/09 03:14:30;;;;;;;9.80;3.47;;;14.30;99.90;;;;;;5065210;28;20198;-60
2022/09/09 03:17:00;;;;;;;21.77;3.87;;;14.40;99.90;;;;;;5067530;28;20295;-60
2022/09/09 03:19:29;;;;;;;13.23;3.87;;;14.30;99.90;;;;;;5081116;28;20703;-60
2022/09/09 03:22:00;;;;;;;15.97;3.70;;;14.30;99.90;;;;;;5073825;28;20224;-60
2022/09/09 03:24:28;;;;;;;8.87;3.23;;;14.30;99.90;;;;;;5084883;28;20199;-60
2022/09/09 03:26:57;;;;;;;12.87;3.77;;;14.30;99.90;;;;;;5063243;28;20200;-60
2022/09/09 03:29:25;;;;;;;27.20;3.70;;;14.30;99.90;;;;;;5069271;28;20192;-60
2022/09/09 03:31:54;;;;;;;11.57;3.63;;;14.40;99.90;;;;;;5062350;28;20195;-60
2022/09/09 03:34:23;;;;;;;11.07;3.63;;;14.40;99.90;;;;;;5070397;28;20214;-60
2022/09/09 03:36:52;;;;;;;12.90;3.30;;;14.40;99.90;;;;;;5071971;28;20693;-60
2022/09/09 03:39:20;;;;;;;12.57;3.43;;;14.40;99.90;;;;;;5057071;28;20197;-61
2022/09/09 03:41:48;;;;;;;7.10;3.70;;;14.50;99.90;;;;;;5072612;28;20677;-61
2022/09/09 03:44:16;;;;;;;13.23;4.13;;;14.50;99.90;;;;;;5066300;28;20228;-61
2022/09/09 03:46:45;;;;;;;11.17;3.03;;;14.60;99.90;;;;;;5072612;28;20192;-61
2022/09/09 03:49:13;;;;;;;13.77;3.10;;;14.60;99.90;;;;;;5081938;28;20193;-61
2022/09/09 03:51:43;;;;;;;12.13;3.20;;;14.60;99.90;;;;;;5078219;28;20196;-60
2022/09/09 03:54:12;;;;;;;13.30;3.50;;;14.60;99.90;;;;;;5082376;28;20946;-60
2022/09/09 03:56:41;;;;;;;11.53;3.33;;;14.70;99.90;;;;;;5076836;28;20216;-61
2022/09/09 03:59:09;;;;;;;18.27;3.70;;;14.70;99.90;;;;;;5072112;28;20519;-60
2022/09/09 04:01:37;;;;;;;14.00;3.43;;;14.70;99.90;;;;;;5081921;28;20198;-61
2022/09/09 04:04:08;;;;;;;10.80;3.03;;;14.70;99.90;;;;;;5074937;28;20283;-60
2022/09/09 04:06:37;;;;;;;10.30;3.27;;;14.70;99.90;;;;;;5085573;28;20199;-61
2022/09/09 04:09:06;;;;;;;11.47;3.33;;;14.70;99.90;;;;;;5080740;28;20574;-61
2022/09/09 04:11:34;;;;;;;10.67;3.77;;;14.70;99.90;;;;;;5075281;28;20208;-61
2022/09/09 04:14:04;;;;;;;13.20;3.17;;;14.70;99.90;;;;;;5074821;28;20289;-61
2022/09/09 04:16:32;;;;;;;14.27;3.90;;;14.70;99.90;;;;;;5074617;28;20554;-61
2022/09/09 04:19:01;;;;;;;15.43;3.13;;;14.70;99.90;;;;;;5068750;28;20226;-61
2022/09/09 04:21:29;;;;;;;10.33;3.20;;;14.80;99.90;;;;;;5108707;28;20199;-60
2022/09/09 04:23:57;;;;;;;18.33;3.57;;;14.80;99.90;;;;;;5087042;28;20195;-60
2022/09/09 04:26:27;;;;;;;12.97;3.60;;;14.80;99.90;;;;;;5088468;28;20539;-61
2022/09/09 04:28:55;;;;;;;9.40;3.37;;;14.80;99.90;;;;;;5066275;28;20199;-61
2022/09/09 04:31:24;;;;;;;14.33;3.83;;;14.80;99.90;;;;;;5074587;28;20193;-61
2022/09/09 04:33:53;;;;;;;11.20;3.10;;;14.80;99.90;;;;;;5071509;28;20292;-61
2022/09/09 04:36:21;;;;;;;8.13;3.20;;;14.80;99.90;;;;;;5072950;28;20679;-61
2022/09/09 04:38:50;;;;;;;19.03;3.53;;;14.90;99.90;;;;;;5082228;28;20192;-61
2022/09/09 04:41:18;;;;;;;13.77;2.87;;;14.90;99.90;;;;;;5071452;28;20195;-61
2022/09/09 04:43:48;;;;;;;12.70;3.30;;;14.90;99.90;;;;;;5065864;28;20219;-61
2022/09/09 04:46:17;;;;;;;12.90;3.70;;;14.90;99.90;;;;;;5070738;28;20639;-61
2022/09/09 04:48:45;;;;;;;12.87;3.30;;;14.90;99.90;;;;;;5072538;28;20685;-61
2022/09/09 04:51:15;;;;;;;8.63;3.03;;;14.90;99.90;;;;;;5081042;28;20186;-61
2022/09/09 04:53:43;;;;;;;7.47;2.90;;;14.80;99.90;;;;;;5080948;28;20200;-61
2022/09/09 04:56:13;;;;;;;13.50;3.53;;;14.80;99.90;;;;;;5082639;28;20200;-61
2022/09/09 04:58:42;;;;;;;7.90;3.03;;;14.80;99.90;;;;;;5077247;28;20195;-61
2022/09/09 05:01:14;;;;;;;15.23;3.33;;;14.90;99.90;;;;;;5078033;28;20199;-61
2022/09/09 05:03:45;;;;;;;9.17;3.23;;;14.90;99.90;;;;;;5069604;28;20203;-61
2022/09/09 05:06:14;;;;;;;11.17;3.30;;;15.00;99.90;;;;;;5079251;28;20192;-60
2022/09/09 05:08:44;;;;;;;9.37;2.80;;;15.00;99.90;;;;;;5073362;28;20662;-61
2022/09/09 05:11:17;;;;;;;16.90;3.40;;;15.00;99.90;;;;;;5070053;28;20196;-61
2022/09/09 05:13:46;;;;;;;7.67;3.00;;;15.00;99.90;;;;;;5116127;27;20207;-60
2022/09/09 05:16:16;;;;;;;13.93;3.33;;;15.00;99.90;;;;;;5055230;28;20217;-60
2022/09/09 05:18:45;;;;;;;14.17;4.00;;;15.00;99.90;;;;;;5073446;28;20197;-61
2022/09/09 05:21:16;;;;;;;7.70;2.93;;;15.10;99.90;;;;;;5054924;28;20189;-61
2022/09/09 05:23:45;;;;;;;8.87;3.57;;;15.10;99.90;;;;;;5073882;28;20271;-61
2022/09/09 05:26:15;;;;;;;9.60;3.10;;;15.10;99.90;;;;;;5074668;28;20192;-61
2022/09/09 05:28:45;;;;;;;14.07;3.50;;;15.10;99.90;;;;;;5074455;28;20834;-61
2022/09/09 05:31:19;;;;;;;13.80;3.00;;;15.10;99.90;;;;;;5093751;28;20188;-61
2022/09/09 05:33:50;;;;;;;9.10;3.50;;;15.10;99.90;;;;;;5066349;28;20690;-61
2022/09/09 05:36:20;;;;;;;12.43;3.17;;;15.10;99.90;;;;;;5075895;28;20192;-62
2022/09/09 05:38:49;;;;;;;7.93;2.90;;;15.10;99.90;;;;;;5062398;28;20196;-61
2022/09/09 05:41:18;;;;;;;11.67;3.20;;;15.10;99.90;;;;;;5072978;28;20583;-61
2022/09/09 05:43:48;;;;;;;14.33;3.60;;;15.10;99.90;;;;;;5074036;28;20208;-61
2022/09/09 05:46:20;;;;;;;9.13;3.20;;;15.20;99.90;;;;;;5071587;28;20554;-61
2022/09/09 05:48:51;;;;;;;11.23;3.87;;;15.20;99.90;;;;;;5074232;28;20246;-61
2022/09/09 05:51:22;;;;;;;12.90;2.67;;;15.10;99.90;;;;;;5073092;28;20201;-61
2022/09/09 05:53:51;;;;;;;17.07;3.50;;;15.20;99.90;;;;;;5065171;28;20194;-61
2022/09/09 05:56:24;;;;;;;16.73;3.40;;;15.20;99.90;;;;;;5079568;28;20203;-61
2022/09/09 05:58:54;;;;;;;13.47;2.90;;;15.30;99.90;;;;;;5066451;28;20564;-61
2022/09/09 06:01:26;;;;;;;10.93;2.70;;;15.30;99.90;;;;;;5068684;28;20220;-61
2022/09/09 06:03:55;;;;;;;10.17;2.87;;;15.30;99.90;;;;;;5058504;28;20200;-62
2022/09/09 06:06:25;;;;;;;9.13;2.60;;;15.30;99.90;;;;;;5106622;28;20192;-61
2022/09/09 06:08:56;;;;;;;15.20;3.10;;;15.30;99.90;;;;;;5073457;28;20180;-61
2022/09/09 06:11:26;;;;;;;9.77;2.70;;;15.30;99.90;;;;;;5069971;28;20203;-61
2022/09/09 06:13:55;;;;;;;13.33;3.10;;;15.30;99.90;;;;;;5071842;28;20609;-61
2022/09/09 06:16:26;;;;;;;12.73;3.80;;;15.40;99.90;;;;;;5073705;28;20193;-61
2022/09/09 06:18:56;;;;;;;9.43;2.73;;;15.40;99.90;;;;;;5073711;28;20205;-61
2022/09/09 06:21:26;;;;;;;18.30;3.43;;;15.40;99.90;;;;;;5068367;28;20288;-62
2022/09/09 06:23:54;;;;;;;11.13;2.80;;;15.50;99.90;;;;;;5065063;28;20188;-61
2022/09/09 06:26:30;;;;;;;8.53;3.07;;;15.50;99.90;;;;;;5054305;28;20232;-62
2022/09/09 06:28:59;;;;;;;10.03;2.93;;;15.50;99.90;;;;;;5067969;28;20219;-61
2022/09/09 06:31:31;;;;;;;11.17;3.07;;;15.50;99.90;;;;;;5088047;28;20653;-61
2022/09/09 06:34:00;;;;;;;6.13;2.80;;;15.50;99.90;;;;;;5092143;28;20197;-61
2022/09/09 06:36:30;;;;;;;12.87;3.30;;;15.60;99.90;;;;;;5073240;28;20549;-61
2022/09/09 06:38:59;;;;;;;8.80;2.93;;;15.60;99.90;;;;;;5068417;28;20256;-62
2022/09/09 06:41:29;;;;;;;13.00;3.77;;;15.70;99.90;;;;;;5073351;28;20564;-61
2022/09/09 06:43:57;;;;;;;14.10;3.13;;;15.80;99.90;;;;;;5071252;28;20217;-61
2022/09/09 06:46:28;;;;;;;9.37;3.33;;;15.80;99.90;;;;;;5053636;28;20193;-61
2022/09/09 06:48:59;;;;;;;12.57;3.20;;;15.90;99.90;;;;;;5053757;28;20200;-62
2022/09/09 06:51:30;;;;;;;10.47;3.57;;;16.10;99.90;;;;;;5061983;28;20193;-61
2022/09/09 06:53:59;;;;;;;12.07;3.73;;;16.10;99.90;;;;;;5078571;28;20192;-61
2022/09/09 06:56:30;;;;;;;11.60;3.63;;;16.20;99.90;;;;;;5074355;28;20190;-61
2022/09/09 06:59:01;;;;;;;11.43;3.47;;;16.20;99.90;;;;;;5073472;28;20206;-61
2022/09/09 07:01:31;;;;;;;7.23;3.03;;;16.10;99.90;;;;;;5073973;28;20197;-61
2022/09/09 07:04:03;;;;;;;9.03;2.80;;;16.10;99.90;;;;;;5073963;28;20210;-61
2022/09/09 07:06:35;;;;;;;5.77;2.47;;;16.10;99.90;;;;;;5086309;28;20608;-61
2022/09/09 07:09:05;;;;;;;8.87;2.97;;;16.10;99.90;;;;;;5088583;28;20284;-61
2022/09/09 07:11:37;;;;;;;10.03;2.47;;;16.10;99.90;;;;;;5067686;28;20240;-61
2022/09/09 07:14:06;;;;;;;8.30;2.97;;;16.10;99.90;;;;;;5059758;28;20658;-61
2022/09/09 07:16:36;;;;;;;11.30;2.63;;;16.10;99.90;;;;;;5105409;28;20651;-61
2022/09/09 07:19:06;;;;;;;11.00;2.30;;;16.00;99.90;;;;;;5073272;28;20216;-61
2022/09/09 07:21:35;;;;;;;10.73;2.57;;;16.00;99.90;;;;;;5071950;28;20193;-61
2022/09/09 07:24:07;;;;;;;6.23;2.43;;;16.00;99.90;;;;;;5072238;28;20196;-61
2022/09/09 07:26:35;;;;;;;10.43;2.60;;;16.00;99.90;;;;;;5076135;28;20665;-61
2022/09/09 07:29:04;;;;;;;12.33;2.80;;;16.00;99.90;;;;;;5077082;28;20193;-61
2022/09/09 07:31:36;;;;;;;8.47;2.80;;;16.10;99.90;;;;;;5075831;28;20188;-61
2022/09/09 07:34:06;;;;;;;12.33;3.07;;;16.00;99.90;;;;;;5077141;28;20189;-61
2022/09/09 07:36:36;;;;;;;15.90;2.73;;;16.00;99.90;;;;;;5086075;28;20199;-61
2022/09/09 07:39:07;;;;;;;9.27;2.90;;;16.00;99.90;;;;;;5097247;28;20212;-61
2022/09/09 07:41:37;;;;;;;7.43;2.50;;;16.10;99.90;;;;;;5094781;28;20636;-61
2022/09/09 07:44:07;;;;;;;12.23;2.63;;;16.20;99.90;;;;;;5089824;28;20250;-61
2022/09/09 07:46:55;;;;;;;11.10;2.90;;;16.30;99.90;;;;;;5077103;28;20190;-61
2022/09/09 07:49:25;;;;;;;9.90;2.80;;;16.40;99.90;;;;;;5076819;28;20581;-61
2022/09/09 07:52:00;;;;;;;13.33;2.43;;;16.50;99.90;;;;;;5076090;28;20260;-62
2022/09/09 07:54:28;;;;;;;8.07;2.43;;;16.70;99.90;;;;;;5076656;28;20539;-62
2022/09/09 07:56:56;;;;;;;7.67;2.27;;;16.70;99.90;;;;;;5076545;28;20193;-61
2022/09/09 07:59:29;;;;;;;9.43;2.97;;;16.80;99.90;;;;;;5079387;28;20252;-62
2022/09/09 08:01:58;;;;;;;7.50;2.00;;;16.80;99.90;;;;;;5083995;28;20205;-61
2022/09/09 08:04:30;;;;;;;5.70;2.30;;;16.80;99.90;;;;;;5078443;28;20196;-61
2022/09/09 08:07:00;;;;;;;8.27;2.60;;;16.80;99.90;;;;;;5091100;28;20205;-61
2022/09/09 08:09:29;;;;;;;4.73;2.07;;;16.80;99.90;;;;;;5070026;28;20231;-61
2022/09/09 08:11:58;;;;;;;9.20;2.93;;;16.70;99.90;;;;;;5076191;28;20195;-62
2022/09/09 08:14:29;;;;;;;9.97;2.73;;;16.70;99.90;;;;;;5083542;28;20268;-61
2022/09/09 08:16:57;;;;;;;11.30;2.70;;;16.80;99.90;;;;;;5092567;28;20190;-61
2022/09/09 08:19:29;;;;;;;5.80;2.50;;;16.70;99.90;;;;;;5068317;28;20600;-61
2022/09/09 08:21:59;;;;;;;8.57;2.67;;;16.70;99.90;;;;;;5075751;28;20288;-62
2022/09/09 08:24:27;;;;;;;7.17;2.47;;;16.70;99.90;;;;;;5075574;28;20198;-62
2022/09/09 08:26:56;;;;;;;7.20;2.50;;;16.60;99.90;;;;;;5075614;28;20197;-62
2022/09/09 08:29:25;;;;;;;8.97;2.77;;;16.60;99.90;;;;;;5075677;28;20502;-61
2022/09/09 08:31:56;;;;;;;8.83;2.77;;;16.60;99.90;;;;;;5075970;28;20217;-62
2022/09/09 08:34:26;;;;;;;8.93;2.40;;;16.50;99.90;;;;;;5075779;28;20236;-62
2022/09/09 08:36:55;;;;;;;6.80;2.57;;;16.50;99.90;;;;;;5074935;28;20191;-62
2022/09/09 08:39:25;;;;;;;9.33;2.77;;;16.50;99.90;;;;;;5074382;28;20206;-61
2022/09/09 08:42:22;;;;;;;8.77;2.83;;;16.50;99.90;;;;;;5064748;28;20199;-61
2022/09/09 08:45:12;;;;;;;6.17;2.00;;;16.50;99.90;;;;;;5075439;28;20712;-62
2022/09/09 08:47:54;;;;;;;6.60;2.33;;;16.50;99.90;;;;;;5069495;28;20733;-62
2022/09/09 08:50:27;;;;;;;9.43;2.50;;;16.50;99.90;;;;;;5088909;28;20204;-61
2022/09/09 08:53:01;;;;;;;8.60;2.43;;;16.50;99.90;;;;;;5057637;28;20198;-61
2022/09/09 08:55:41;;;;;;;10.30;2.50;;;16.50;99.90;;;;;;5075801;28;20198;-62
2022/09/09 08:58:15;;;;;;;6.20;2.67;;;16.50;99.90;;;;;;5075009;28;20206;-61
2022/09/09 09:01:18;;;;;;;4.80;2.40;;;16.50;99.90;;;;;;5075346;28;20240;-62
2022/09/09 09:03:54;;;;;;;6.47;2.37;;;16.60;99.90;;;;;;5068616;28;20199;-61
2022/09/09 09:06:37;;;;;;;8.63;2.70;;;16.60;99.90;;;;;;5083960;28;20196;-61
2022/09/09 09:09:13;;;;;;;9.20;2.63;;;16.70;99.90;;;;;;5060657;28;20235;-61
2022/09/09 09:11:48;;;;;;;9.60;2.63;;;16.80;99.90;;;;;;5073864;28;20210;-61
2022/09/09 09:14:23;;;;;;;6.53;2.37;;;16.80;99.90;;;;;;5069544;28;20215;-62
2022/09/09 09:16:55;;;;;;;8.30;2.13;;;16.90;99.90;;;;;;5107634;28;20202;-61
2022/09/09 09:19:25;;;;;;;7.77;2.40;;;16.90;99.90;;;;;;5076829;28;20220;-62
2022/09/09 09:22:03;;;;;;;6.97;2.30;;;16.90;99.90;;;;;;5077339;28;20704;-62
2022/09/09 09:24:42;;;;;;;7.47;2.20;;;16.90;99.90;;;;;;5074716;28;20200;-61
2022/09/09 09:27:15;;;;;;;7.57;2.73;;;16.90;99.90;;;;;;5058214;28;20200;-61
2022/09/09 09:29:45;;;;;;;9.90;2.53;;;16.90;99.90;;;;;;5074969;28;20519;-61
2022/09/09 09:32:38;;;;;;;8.33;2.43;;;16.90;99.90;;;;;;5071489;28;20253;-62
2022/09/09 09:35:12;;;;;;;7.03;2.43;;;17.00;99.90;;;;;;5054853;28;20202;-61
2022/09/09 09:37:43;;;;;;;12.43;2.70;;;17.00;99.90;;;;;;5053298;28;20555;-62
2022/09/09 09:40:33;;;;;;;4.13;1.97;;;17.00;99.90;;;;;;5071756;28;20202;-61
2022/09/09 09:43:07;;;;;;;14.00;2.70;;;17.00;99.90;;;;;;5072517;28;20646;-62
2022/09/09 09:45:44;;;;;;;8.23;2.47;;;17.10;99.90;;;;;;5070737;28;20566;-60
2022/09/09 09:48:32;;;;;;;7.43;2.30;;;17.20;99.90;;;;;;5059529;28;20200;-62
2022/09/09 09:51:07;;;;;;;3.93;1.70;;;17.30;99.90;;;;;;5068311;28;20203;-62
2022/09/09 09:53:38;;;;;;;9.40;2.20;;;17.40;99.90;;;;;;5072527;28;20184;-62
2022/09/09 09:56:10;;;;;;;8.57;2.47;;;17.40;99.90;;;;;;5073578;28;20192;-61
2022/09/09 09:58:52;;;;;;;6.53;2.10;;;17.50;99.90;;;;;;5076259;28;20215;-61
2022/09/09 10:01:23;;;;;;;4.90;2.30;;;17.60;99.90;;;;;;5090333;28;20200;-62
2022/09/09 10:04:01;;;;;;;11.33;2.30;;;17.70;99.90;;;;;;5052793;28;20189;-61
2022/09/09 10:06:35;;;;;;;7.30;2.30;;;17.80;99.90;;;;;;5086196;28;20270;-62
2022/09/09 10:09:20;;;;;;;2.97;1.83;;;18.00;99.90;;;;;;5067198;28;20192;-61
2022/09/09 10:11:58;;;;;;;6.83;2.37;;;18.00;99.90;;;;;;5069833;28;20200;-61
2022/09/09 10:14:37;;;;;;;5.53;1.93;;;18.00;99.90;;;;;;5073812;28;20199;-62
2022/09/09 10:17:19;;;;;;;3.90;2.50;;;17.90;99.90;;;;;;5072149;28;20192;-62
2022/09/09 10:19:58;;;;;;;7.60;1.90;;;17.70;99.90;;;;;;5072546;28;20214;-61
2022/09/09 10:22:28;;;;;;;3.53;1.80;;;17.70;99.90;;;;;;5091700;28;20187;-61
2022/09/09 10:25:28;;;;;;;3.57;1.80;;;17.60;99.90;;;;;;5081056;28;20212;-62
2022/09/09 10:28:22;;;;;;;3.30;1.87;;;17.50;99.90;;;;;;5066193;28;20556;-61
2022/09/09 10:31:03;;;;;;;4.50;2.00;;;17.50;99.90;;;;;;5053641;28;20195;-61
2022/09/09 10:33:38;;;;;;;7.23;2.10;;;17.60;99.90;;;;;;5062055;28;20209;-62
2022/09/09 10:36:14;;;;;;;4.30;2.03;;;17.60;99.90;;;;;;5069601;28;20206;-61
2022/09/09 10:38:46;;;;;;;4.23;1.90;;;17.60;99.90;;;;;;5070751;28;20192;-61
2022/09/09 10:41:32;;;;;;;5.80;1.70;;;17.60;99.90;;;;;;5066671;28;20296;-61
2022/09/09 10:44:20;;;;;;;6.77;1.90;;;17.70;99.90;;;;;;5066603;28;20196;-61
2022/09/09 10:47:03;;;;;;;5.97;2.27;;;17.70;99.90;;;;;;5073711;28;20538;-61
2022/09/09 10:49:59;;;;;;;2.70;1.67;;;17.80;99.90;;;;;;5065611;28;20587;-61
2022/09/09 10:52:33;;;;;;;3.97;1.70;;;17.90;99.90;;;;;;5053333;28;20196;-62
2022/09/09 10:55:10;;;;;;;5.80;2.03;;;18.00;99.90;;;;;;5069183;28;20570;-61
2022/09/09 10:57:42;;;;;;;6.97;2.00;;;18.00;99.90;;;;;;5069598;28;20195;-62
2022/09/09 11:00:17;;;;;;;2.93;1.80;;;18.10;99.90;;;;;;5056224;28;20682;-61
2022/09/09 11:02:53;;;;;;;4.37;1.87;;;18.10;99.90;;;;;;5057888;28;20279;-61
2022/09/09 11:05:28;;;;;;;4.27;2.00;;;18.10;99.90;;;;;;5076598;28;20199;-61
2022/09/09 11:07:59;;;;;;;2.80;1.60;;;18.30;99.90;;;;;;5093280;28;20191;-61
2022/09/09 11:10:39;;;;;;;2.70;1.90;;;18.40;99.90;;;;;;5073939;28;20293;-61
2022/09/09 11:13:15;;;;;;;2.93;1.60;;;18.60;99.90;;;;;;5073279;28;20195;-61
2022/09/09 11:15:48;;;;;;;3.43;1.80;;;18.70;99.90;;;;;;5081626;28;20203;-61
2022/09/09 11:18:21;;;;;;;4.80;1.50;;;18.80;99.90;;;;;;5067775;28;20234;-61
2022/09/09 11:20:52;;;;;;;6.13;2.07;;;18.90;99.90;;;;;;5052835;28;20216;-62
2022/09/09 11:23:27;;;;;;;7.07;1.90;;;19.00;99.90;;;;;;5065508;28;20275;-62
2022/09/09 11:25:58;;;;;;;1.37;1.30;;;19.00;99.90;;;;;;5063413;28;20188;-61
2022/09/09 11:28:47;;;;;;;1.63;1.53;;;19.10;99.90;;;;;;5072555;28;20266;-62
2022/09/09 11:31:39;;;;;;;3.20;1.80;;;18.90;99.90;;;;;;5071664;28;20638;-61
2022/09/09 11:34:28;;;;;;;2.53;1.37;;;18.90;99.90;;;;;;5052924;28;20204;-61
2022/09/09 11:37:29;;;;;;;3.23;1.70;;;18.80;99.90;;;;;;5058934;28;20185;-61
2022/09/09 11:40:17;;;;;;;1.80;1.70;;;18.70;99.90;;;;;;5071893;28;20235;-61
2022/09/09 11:42:47;;;;;;;2.07;1.70;;;18.70;99.90;;;;;;5081374;28;20192;-61
2022/09/09 11:45:25;;;;;;;4.07;1.93;;;18.70;99.90;;;;;;5052752;28;20192;-62
2022/09/09 11:47:55;;;;;;;3.07;1.73;;;18.80;99.90;;;;;;5058141;28;20278;-61
2022/09/09 11:50:34;;;;;;;7.43;2.07;;;19.00;99.90;;;;;;5072548;28;20199;-61
2022/09/09 11:53:22;;;;;;;4.47;1.93;;;19.30;99.90;;;;;;5071766;28;20653;-62
2022/09/09 11:56:09;;;;;;;4.13;1.90;;;19.40;99.90;;;;;;5058198;28;20662;-61
2022/09/09 11:58:45;;;;;;;2.37;1.60;;;19.50;99.90;;;;;;5072724;28;20211;-61
2022/09/09 12:01:28;;;;;;;2.80;1.77;;;19.70;99.90;;;;;;5072735;28;20562;-61
2022/09/09 12:04:15;;;;;;;6.13;1.80;;;19.80;99.90;;;;;;5056944;28;20199;-61
2022/09/09 12:06:54;;;;;;;4.97;1.97;;;20.20;99.90;;;;;;5088092;28;20192;-61
2022/09/09 12:09:47;;;;;;;2.83;2.10;;;20.30;99.90;;;;;;5087825;28;20232;-61
2022/09/09 12:12:25;;;;;;;2.50;1.87;;;20.40;99.90;;;;;;5083201;28;20188;-61
2022/09/09 12:15:03;;;;;;;1.90;1.77;;;20.20;99.90;;;;;;5090063;28;20202;-62
2022/09/09 12:17:37;;;;;;;5.53;2.03;;;20.20;99.90;;;;;;5079901;28;20562;-61
2022/09/09 12:20:14;;;;;;;6.43;2.30;;;20.10;99.90;;;;;;5055911;28;20189;-61
2022/09/09 12:22:57;;;;;;;4.40;2.17;;;20.10;99.90;;;;;;5055131;28;20203;-61
2022/09/09 12:25:36;;;;;;;2.70;1.80;;;20.10;99.90;;;;;;5072862;28;20204;-61
2022/09/09 12:28:12;;;;;;;6.63;1.97;;;20.20;99.90;;;;;;5076523;28;20499;-61
2022/09/09 12:30:49;;;;;;;1.93;1.77;;;20.30;99.90;;;;;;5074734;28;20187;-61
2022/09/09 12:33:19;;;;;;;3.03;1.63;;;20.50;99.90;;;;;;5055926;28;20195;-61
2022/09/09 12:35:54;;;;;;;2.93;1.80;;;20.70;99.90;;;;;;5063435;28;20554;-61
2022/09/09 12:38:33;;;;;;;4.47;1.60;;;20.60;99.90;;;;;;5075736;28;20632;-61
2022/09/09 12:41:01;;;;;;;1.70;1.60;;;20.60;99.90;;;;;;5071272;28;20201;-61
2022/09/09 12:43:30;;;;;;;4.43;1.87;;;20.50;99.90;;;;;;5055714;28;20185;-61
2022/09/09 12:46:01;;;;;;;5.40;2.00;;;20.40;99.90;;;;;;5055847;28;20196;-61
2022/09/09 12:48:35;;;;;;;2.63;1.60;;;20.20;99.90;;;;;;5055821;28;20228;-61
2022/09/09 12:51:20;;;;;;;3.50;1.70;;;20.10;99.90;;;;;;5069288;28;20223;-61
2022/09/09 12:53:50;;;;;;;3.07;1.77;;;20.00;99.90;;;;;;5075496;28;20196;-61
2022/09/09 12:56:23;;;;;;;4.20;1.70;;;20.20;99.90;;;;;;5075880;28;20207;-61
2022/09/09 12:58:53;;;;;;;5.10;1.70;;;20.40;99.90;;;;;;5075334;28;20550;-61
2022/09/09 13:01:24;;;;;;;5.30;1.90;;;20.60;99.90;;;;;;5075128;28;20228;-62
2022/09/09 13:03:54;;;;;;;4.10;1.73;;;20.60;99.90;;;;;;5074174;28;20221;-62
2022/09/09 13:06:24;;;;;;;2.23;1.70;;;20.50;99.90;;;;;;5072347;28;20638;-61
2022/09/09 13:08:59;;;;;;;5.30;1.57;;;20.30;99.90;;;;;;5055929;28;20203;-61
2022/09/09 13:11:31;;;;;;;3.83;1.20;;;20.20;99.90;;;;;;5080274;28;20183;-61
2022/09/09 13:14:00;;;;;;;3.03;1.67;;;20.00;99.90;;;;;;5095428;28;20546;-61
2022/09/09 13:16:31;;;;;;;4.43;1.90;;;20.00;99.90;;;;;;5094166;28;20214;-61